Time;durP1;ratioP1;P1;durP2;ratioP2;P2;SDS_P1;SDS_P2;PMS_P1;PMS_P2;Temp;Humidity;BMP_temperature;BMP_pressure;BME280_temperature;BME280_humidity;BME280_pressure;Samples;Min_cycle;Max_cycle;Signal;HPM_P1;HPM_P2
2023/06/26 00:00:08;;;;;;;7.67;7.00;;;;;;;;;;5031894;28;20443;-64
2023/06/26 00:02:34;;;;;;;8.10;7.50;;;;;;;;;;5031152;28;20842;-64
2023/06/26 00:05:04;;;;;;;7.67;7.17;;;;;;;;;;5032168;28;20446;-64
2023/06/26 00:07:30;;;;;;;8.47;7.90;;;;;;;;;;5031754;28;20507;-64
2023/06/26 00:09:56;;;;;;;8.63;7.70;;;;;;;;;;5032360;28;20539;-64
2023/06/26 00:12:22;;;;;;;8.03;7.43;;;;;;;;;;5032038;28;20418;-64
2023/06/26 00:14:48;;;;;;;7.67;7.10;;;;;;;;;;5032038;28;20460;-64
2023/06/26 00:17:14;;;;;;;8.10;7.40;;;;;;;;;;5032196;28;20511;-64
2023/06/26 00:19:40;;;;;;;7.83;7.33;;;;;;;;;;5031559;28;20422;-64
2023/06/26 00:22:06;;;;;;;11.47;7.57;;;;;;;;;;5032188;28;20448;-64
2023/06/26 00:24:32;;;;;;;9.90;7.77;;;;;;;;;;5032081;28;20503;-64
2023/06/26 00:26:58;;;;;;;7.10;6.70;;;;;;;;;;5031371;28;20487;-64
2023/06/26 00:29:24;;;;;;;8.27;7.47;;;;;;;;;;5032055;28;20408;-64
2023/06/26 00:31:50;;;;;;;7.33;6.90;;;;;;;;;;5031724;28;20975;-64
2023/06/26 00:34:19;;;;;;;7.20;6.80;;;;;;;;;;5031788;28;20424;-64
2023/06/26 00:36:45;;;;;;;9.03;8.40;;;;;;;;;;5031626;28;20412;-64
2023/06/26 00:39:11;;;;;;;6.93;6.60;;;;;;;;;;5032120;28;20462;-64
2023/06/26 00:41:37;;;;;;;8.40;7.80;;;;;;;;;;5032195;28;20421;-64
2023/06/26 00:44:06;;;;;;;7.77;7.27;;;;;;;;;;5031867;28;20420;-64
2023/06/26 00:46:33;;;;;;;8.07;7.47;;;;;;;;;;5031419;28;20963;-64
2023/06/26 00:49:04;;;;;;;8.43;7.30;;;;;;;;;;5032011;28;20524;-64
2023/06/26 00:51:33;;;;;;;8.23;7.60;;;;;;;;;;5031611;28;20431;-64
2023/06/26 00:54:02;;;;;;;8.50;7.90;;;;;;;;;;5031814;28;20446;-64
2023/06/26 00:56:28;;;;;;;8.43;7.83;;;;;;;;;;5031958;28;20493;-64
2023/06/26 00:58:54;;;;;;;8.13;7.33;;;;;;;;;;5031884;28;20433;-64
2023/06/26 01:01:21;;;;;;;8.10;7.60;;;;;;;;;;5031785;28;20486;-64
2023/06/26 01:03:52;;;;;;;9.00;8.10;;;;;;;;;;5031734;28;20430;-64
2023/06/26 01:06:18;;;;;;;8.07;7.57;;;;;;;;;;5031804;28;20567;-64
2023/06/26 01:08:45;;;;;;;8.10;7.50;;;;;;;;;;5031787;28;20435;-64
2023/06/26 01:11:11;;;;;;;8.37;7.77;;;;;;;;;;5030209;28;20427;-64
2023/06/26 01:13:37;;;;;;;11.47;8.27;;;;;;;;;;5033572;28;20486;-64
2023/06/26 01:16:08;;;;;;;9.00;8.33;;;;;;;;;;5035511;28;20941;-64
2023/06/26 01:18:35;;;;;;;8.10;7.43;;;;;;;;;;5035032;28;20874;-64
2023/06/26 01:21:02;;;;;;;8.37;7.60;;;;;;;;;;5035153;28;20458;-64
2023/06/26 01:23:47;;;;;;;8.77;8.13;;;;;;;;;;5035512;28;20431;-64
2023/06/26 01:26:13;;;;;;;8.37;7.60;;;;;;;;;;5035580;28;20491;-64
2023/06/26 01:28:42;;;;;;;8.33;7.63;;;;;;;;;;5035518;28;20493;-64
2023/06/26 01:31:09;;;;;;;9.83;8.83;;;;;;;;;;5035289;28;20423;-64
2023/06/26 01:33:39;;;;;;;8.70;8.00;;;;;;;;;;5035129;28;21026;-64
2023/06/26 01:36:05;;;;;;;9.17;8.57;;;;;;;;;;5035495;28;20503;-64
2023/06/26 01:38:31;;;;;;;8.40;7.80;;;;;;;;;;5034937;28;20442;-64
2023/06/26 01:40:58;;;;;;;9.13;8.10;;;;;;;;;;5035054;28;20458;-57
2023/06/26 01:43:42;;;;;;;7.43;6.93;;;;;;;;;;5035237;28;20941;-57
2023/06/26 01:46:18;;;;;;;8.17;7.60;;;;;;;;;;5035084;28;20468;-57
2023/06/26 01:48:50;;;;;;;7.77;7.17;;;;;;;;;;5015420;28;20428;-57
2023/06/26 01:51:18;;;;;;;8.00;7.40;;;;;;;;;;5015285;28;20413;-59
2023/06/26 01:53:48;;;;;;;8.90;8.00;;;;;;;;;;5015270;28;20486;-61
2023/06/26 01:56:16;;;;;;;9.20;8.40;;;;;;;;;;5015270;28;20439;-60
2023/06/26 01:58:46;;;;;;;8.70;7.90;;;;;;;;;;5013923;28;20789;-60
2023/06/26 02:01:14;;;;;;;7.93;7.40;;;;;;;;;;5015004;28;20451;-60
2023/06/26 02:03:40;;;;;;;8.00;7.40;;;;;;;;;;5015213;28;20899;-60
2023/06/26 02:06:06;;;;;;;12.50;8.17;;;;;;;;;;5015001;28;20527;-60
2023/06/26 02:08:34;;;;;;;11.40;7.93;;;;;;;;;;5014785;28;20811;-57
2023/06/26 02:11:02;;;;;;;8.53;7.73;;;;;;;;;;5015025;28;20461;-57
2023/06/26 02:13:31;;;;;;;8.43;7.83;;;;;;;;;;5014812;28;20837;-57
2023/06/26 02:15:57;;;;;;;8.37;7.57;;;;;;;;;;5014979;28;20444;-57
2023/06/26 02:18:24;;;;;;;8.43;7.53;;;;;;;;;;5014858;28;20471;-57
2023/06/26 02:20:52;;;;;;;9.20;7.67;;;;;;;;;;5014748;28;20415;-57
2023/06/26 02:23:20;;;;;;;9.07;8.20;;;;;;;;;;5014676;28;20454;-57
2023/06/26 02:25:46;;;;;;;9.20;8.50;;;;;;;;;;5013454;28;20546;-57
2023/06/26 02:28:12;;;;;;;7.20;6.80;;;;;;;;;;5014425;28;20899;-57
2023/06/26 02:30:40;;;;;;;8.77;8.17;;;;;;;;;;5013317;28;20446;-57
2023/06/26 02:33:06;;;;;;;8.90;8.20;;;;;;;;;;5014496;28;20940;-58
2023/06/26 02:35:32;;;;;;;9.20;8.07;;;;;;;;;;5014174;28;20443;-57
2023/06/26 02:38:01;;;;;;;10.17;7.60;;;;;;;;;;5014349;28;20438;-57
2023/06/26 02:40:34;;;;;;;8.30;7.70;;;;;;;;;;5014321;28;20458;-60
2023/06/26 02:43:00;;;;;;;10.43;7.83;;;;;;;;;;5014193;28;20420;-60
2023/06/26 02:45:29;;;;;;;8.63;7.87;;;;;;;;;;5014105;28;20816;-59
2023/06/26 02:47:55;;;;;;;8.73;7.97;;;;;;;;;;5014135;28;20486;-60
2023/06/26 02:50:23;;;;;;;8.77;8.07;;;;;;;;;;5014024;28;20490;-59
2023/06/26 02:52:52;;;;;;;8.30;7.60;;;;;;;;;;5014298;28;20422;-60
2023/06/26 02:55:18;;;;;;;9.03;8.23;;;;;;;;;;5013908;28;20420;-60
2023/06/26 02:57:46;;;;;;;11.00;8.10;;;;;;;;;;5013780;28;20918;-60
2023/06/26 03:00:13;;;;;;;9.10;8.37;;;;;;;;;;5013999;28;20510;-59
2023/06/26 03:02:39;;;;;;;9.13;8.33;;;;;;;;;;5013839;28;20422;-59
2023/06/26 03:05:05;;;;;;;9.03;8.17;;;;;;;;;;5013884;28;20781;-59
2023/06/26 03:07:31;;;;;;;7.87;7.27;;;;;;;;;;5013635;28;20442;-59
2023/06/26 03:09:57;;;;;;;9.40;8.60;;;;;;;;;;5013862;28;20435;-59
2023/06/26 03:12:24;;;;;;;8.77;7.90;;;;;;;;;;5013521;28;20517;-59
2023/06/26 03:14:50;;;;;;;8.53;7.50;;;;;;;;;;5013893;28;20410;-57
2023/06/26 03:17:16;;;;;;;9.13;7.93;;;;;;;;;;5013737;28;20785;-57
2023/06/26 03:19:44;;;;;;;8.60;7.90;;;;;;;;;;5013771;28;20509;-56
2023/06/26 03:22:10;;;;;;;8.43;7.83;;;;;;;;;;5012446;28;20794;-57
2023/06/26 03:24:36;;;;;;;8.40;7.60;;;;;;;;;;5013700;28;20865;-57
2023/06/26 03:27:02;;;;;;;9.17;8.37;;;;;;;;;;5013635;28;20465;-57
2023/06/26 03:29:29;;;;;;;8.00;7.30;;;;;;;;;;5013559;28;20424;-57
2023/06/26 03:31:56;;;;;;;8.00;7.50;;;;;;;;;;5013497;28;20406;-57
2023/06/26 03:34:21;;;;;;;8.70;7.83;;;;;;;;;;5013541;28;20429;-57
2023/06/26 03:36:47;;;;;;;8.03;7.27;;;;;;;;;;5013213;28;20521;-57
2023/06/26 03:39:16;;;;;;;8.97;8.20;;;;;;;;;;5013498;28;20458;-57
2023/06/26 03:41:44;;;;;;;13.27;8.00;;;;;;;;;;5013189;28;20418;-57
2023/06/26 03:44:10;;;;;;;8.87;8.07;;;;;;;;;;5013286;28;20424;-57
2023/06/26 03:46:36;;;;;;;9.10;8.23;;;;;;;;;;5012919;28;20483;-57
2023/06/26 03:49:02;;;;;;;8.53;7.63;;;;;;;;;;5013635;28;20485;-57
2023/06/26 03:51:30;;;;;;;9.23;8.17;;;;;;;;;;5013114;28;20502;-57
2023/06/26 03:53:59;;;;;;;15.43;9.07;;;;;;;;;;5013108;28;20469;-58
2023/06/26 03:56:24;;;;;;;8.17;7.33;;;;;;;;;;5013404;28;20422;-58
2023/06/26 03:58:50;;;;;;;9.57;8.40;;;;;;;;;;5013437;28;20442;-58
2023/06/26 04:01:16;;;;;;;11.33;7.90;;;;;;;;;;5013751;28;20453;-58
2023/06/26 04:03:42;;;;;;;11.50;8.30;;;;;;;;;;5013315;28;20437;-58
2023/06/26 04:06:09;;;;;;;12.27;8.60;;;;;;;;;;5012962;28;20457;-58
2023/06/26 04:08:35;;;;;;;16.93;13.10;;;;;;;;;;5012760;28;20540;-57
2023/06/26 04:11:01;;;;;;;11.67;8.47;;;;;;;;;;5013056;28;20430;-58
2023/06/26 04:13:27;;;;;;;10.93;9.20;;;;;;;;;;5012822;28;20517;-58
2023/06/26 04:15:54;;;;;;;10.70;8.10;;;;;;;;;;5013095;28;20532;-57
2023/06/26 04:18:20;;;;;;;8.70;8.00;;;;;;;;;;5012796;28;20509;-58
2023/06/26 04:21:07;;;;;;;12.03;8.40;;;;;;;;;;5012537;28;20433;-58
2023/06/26 04:23:33;;;;;;;9.17;8.30;;;;;;;;;;5012430;28;20472;-58
2023/06/26 04:25:59;;;;;;;10.77;8.67;;;;;;;;;;5012567;28;20569;-58
2023/06/26 04:28:25;;;;;;;9.00;7.90;;;;;;;;;;5012411;28;20430;-58
2023/06/26 04:30:51;;;;;;;10.20;8.00;;;;;;;;;;5012507;28;20931;-58
2023/06/26 04:33:17;;;;;;;10.07;7.93;;;;;;;;;;5012414;28;20415;-58
2023/06/26 04:35:48;;;;;;;13.93;8.77;;;;;;;;;;5012358;28;20937;-58
2023/06/26 04:38:15;;;;;;;14.33;8.70;;;;;;;;;;5012438;28;20531;-58
2023/06/26 04:40:43;;;;;;;8.93;7.90;;;;;;;;;;5012462;28;20408;-58
2023/06/26 04:43:09;;;;;;;38.33;27.73;;;;;;;;;;5012448;28;20445;-58
2023/06/26 04:45:35;;;;;;;14.63;11.83;;;;;;;;;;5012394;28;20515;-58
2023/06/26 04:48:01;;;;;;;9.67;8.83;;;;;;;;;;5013575;28;20420;-57
2023/06/26 04:50:29;;;;;;;18.80;10.10;;;;;;;;;;5016338;28;20823;-58
2023/06/26 04:52:58;;;;;;;18.97;12.00;;;;;;;;;;5016511;28;20415;-58
2023/06/26 04:55:28;;;;;;;14.63;10.50;;;;;;;;;;5016514;28;20415;-58
2023/06/26 04:57:53;;;;;;;17.87;11.93;;;;;;;;;;5016449;28;20760;-57
2023/06/26 05:00:19;;;;;;;13.63;12.40;;;;;;;;;;5016591;28;20442;-58
2023/06/26 05:02:46;;;;;;;15.77;8.40;;;;;;;;;;5016232;28;20984;-58
2023/06/26 05:05:12;;;;;;;11.80;8.90;;;;;;;;;;5016038;28;20436;-56
2023/06/26 05:07:44;;;;;;;13.27;7.87;;;;;;;;;;5034019;28;20447;-56
2023/06/26 05:10:12;;;;;;;8.90;7.83;;;;;;;;;;5035812;28;20906;-56
2023/06/26 05:12:38;;;;;;;9.63;8.73;;;;;;;;;;5035516;28;20503;-56
2023/06/26 05:15:04;;;;;;;10.17;7.60;;;;;;;;;;5035770;28;20498;-56
2023/06/26 05:17:30;;;;;;;8.47;7.50;;;;;;;;;;5035611;28;20420;-55
2023/06/26 05:19:56;;;;;;;9.37;8.50;;;;;;;;;;5035701;28;20888;-56
2023/06/26 05:22:22;;;;;;;10.13;8.67;;;;;;;;;;5035578;28;20796;-56
2023/06/26 05:24:48;;;;;;;13.93;8.90;;;;;;;;;;5035657;28;20404;-56
2023/06/26 05:27:21;;;;;;;9.80;7.77;;;;;;;;;;5035420;28;21006;-56
2023/06/26 05:29:47;;;;;;;9.47;8.50;;;;;;;;;;5034387;28;20420;-56
2023/06/26 05:32:17;;;;;;;8.83;8.03;;;;;;;;;;5035540;28;20416;-56
2023/06/26 05:34:43;;;;;;;8.70;7.50;;;;;;;;;;5033935;28;20429;-56
2023/06/26 05:37:10;;;;;;;9.63;8.17;;;;;;;;;;5035140;28;20543;-56
2023/06/26 05:39:36;;;;;;;13.70;8.07;;;;;;;;;;5035071;28;20438;-56
2023/06/26 05:42:03;;;;;;;11.20;8.00;;;;;;;;;;5035559;28;20819;-56
2023/06/26 05:44:29;;;;;;;10.07;7.60;;;;;;;;;;5035089;28;20410;-56
2023/06/26 05:46:55;;;;;;;7.90;7.40;;;;;;;;;;5034891;28;20954;-56
2023/06/26 05:49:23;;;;;;;8.43;7.73;;;;;;;;;;5034725;28;20426;-56
2023/06/26 05:51:51;;;;;;;8.47;7.43;;;;;;;;;;5033672;28;20422;-56
2023/06/26 05:54:17;;;;;;;7.63;6.90;;;;;;;;;;5034986;28;20428;-56
2023/06/26 05:56:43;;;;;;;7.90;7.20;;;;;;;;;;5034687;28;20480;-56
2023/06/26 05:59:11;;;;;;;7.60;7.00;;;;;;;;;;5035078;28;20400;-56
2023/06/26 06:01:37;;;;;;;7.67;7.07;;;;;;;;;;5034354;28;20504;-56
2023/06/26 06:04:03;;;;;;;8.30;7.70;;;;;;;;;;5034946;28;20416;-56
2023/06/26 06:06:29;;;;;;;7.17;6.73;;;;;;;;;;5034834;28;20571;-57
2023/06/26 06:09:00;;;;;;;10.70;7.93;;;;;;;;;;5034490;28;20543;-57
2023/06/26 06:11:26;;;;;;;8.53;7.57;;;;;;;;;;5034538;28;20437;-58
2023/06/26 06:13:52;;;;;;;8.77;7.87;;;;;;;;;;5034721;28;20412;-57
2023/06/26 06:16:20;;;;;;;8.63;7.57;;;;;;;;;;5034552;28;20862;-57
2023/06/26 06:18:46;;;;;;;13.50;7.13;;;;;;;;;;5034481;28;20409;-57
2023/06/26 06:21:12;;;;;;;14.60;7.40;;;;;;;;;;5034739;28;20880;-57
2023/06/26 06:23:40;;;;;;;12.10;8.10;;;;;;;;;;5034562;28;20517;-57
2023/06/26 06:26:06;;;;;;;10.20;6.60;;;;;;;;;;5034121;28;20496;-57
2023/06/26 06:28:32;;;;;;;14.23;9.03;;;;;;;;;;5034576;28;20445;-57
2023/06/26 06:31:00;;;;;;;17.50;8.30;;;;;;;;;;5034440;28;20397;-57
2023/06/26 06:33:26;;;;;;;9.27;7.13;;;;;;;;;;5034395;28;20436;-57
2023/06/26 06:35:52;;;;;;;7.90;7.30;;;;;;;;;;5034286;28;20409;-56
2023/06/26 06:38:20;;;;;;;7.13;6.63;;;;;;;;;;5033782;28;20489;-57
2023/06/26 06:40:46;;;;;;;11.63;6.33;;;;;;;;;;5034131;28;20983;-57
2023/06/26 06:43:12;;;;;;;7.63;7.17;;;;;;;;;;5033802;28;20545;-58
2023/06/26 06:45:41;;;;;;;8.47;6.57;;;;;;;;;;5033903;28;20471;-58
2023/06/26 06:48:07;;;;;;;7.20;6.60;;;;;;;;;;5033886;28;20900;-58
2023/06/26 06:50:33;;;;;;;13.13;6.70;;;;;;;;;;5033604;28;20917;-57
2023/06/26 06:53:01;;;;;;;9.80;6.70;;;;;;;;;;5033848;28;20409;-57
2023/06/26 06:55:27;;;;;;;7.10;6.60;;;;;;;;;;5033887;28;20407;-57
2023/06/26 06:57:53;;;;;;;6.60;6.10;;;;;;;;;;5033802;28;20461;-58
2023/06/26 07:00:21;;;;;;;6.37;5.83;;;;;;;;;;5033747;28;20923;-56
2023/06/26 07:02:49;;;;;;;7.23;6.50;;;;;;;;;;5033713;28;20438;-56
2023/06/26 07:05:16;;;;;;;12.70;11.13;;;;;;;;;;5033510;28;20968;-56
2023/06/26 07:07:42;;;;;;;6.63;6.23;;;;;;;;;;5033718;28;20430;-56
2023/06/26 07:10:10;;;;;;;10.93;6.97;;;;;;;;;;5032901;28;20415;-57
2023/06/26 07:12:38;;;;;;;7.70;7.30;;;;;;;;;;5033477;28;20683;-58
2023/06/26 07:15:05;;;;;;;9.07;6.60;;;;;;;;;;5033409;28;20415;-58
2023/06/26 07:17:31;;;;;;;7.27;6.67;;;;;;;;;;5033382;28;20433;-58
2023/06/26 07:20:00;;;;;;;7.30;6.87;;;;;;;;;;5033330;28;20416;-58
2023/06/26 07:22:29;;;;;;;7.00;6.40;;;;;;;;;;5033587;28;20435;-58
2023/06/26 07:24:55;;;;;;;7.57;6.97;;;;;;;;;;5033136;28;20447;-58
2023/06/26 07:27:23;;;;;;;6.63;6.03;;;;;;;;;;5032989;28;20459;-56
2023/06/26 07:29:51;;;;;;;6.73;6.10;;;;;;;;;;5033223;28;20483;-58
2023/06/26 07:32:17;;;;;;;6.87;6.30;;;;;;;;;;5033101;28;20427;-58
2023/06/26 07:34:43;;;;;;;6.70;6.20;;;;;;;;;;5032948;28;20415;-58
2023/06/26 07:37:09;;;;;;;8.43;6.70;;;;;;;;;;5032964;28;20413;-57
2023/06/26 07:39:35;;;;;;;8.33;7.20;;;;;;;;;;5033195;28;20431;-57
2023/06/26 07:42:01;;;;;;;6.83;6.43;;;;;;;;;;5033035;28;20496;-58
2023/06/26 07:44:27;;;;;;;7.90;6.87;;;;;;;;;;5032760;28;20449;-58
2023/06/26 07:46:53;;;;;;;6.70;6.13;;;;;;;;;;5032825;28;20510;-58
2023/06/26 07:49:19;;;;;;;6.83;6.40;;;;;;;;;;5032876;28;20467;-58
2023/06/26 07:51:45;;;;;;;7.50;7.00;;;;;;;;;;5032915;28;20436;-57
2023/06/26 07:54:11;;;;;;;7.13;6.73;;;;;;;;;;5032509;28;20430;-58
2023/06/26 07:56:55;;;;;;;6.77;6.47;;;;;;;;;;5031341;28;20522;-58
2023/06/26 07:59:24;;;;;;;6.70;6.13;;;;;;;;;;5032610;28;20478;-58
2023/06/26 08:01:51;;;;;;;6.73;6.43;;;;;;;;;;5032562;28;20419;-58
2023/06/26 08:04:21;;;;;;;6.70;6.10;;;;;;;;;;5032464;28;20993;-57
2023/06/26 08:06:50;;;;;;;7.23;6.80;;;;;;;;;;5032643;28;20455;-58
2023/06/26 08:09:17;;;;;;;10.63;6.47;;;;;;;;;;5032216;28;20474;-56
2023/06/26 08:11:46;;;;;;;7.20;6.70;;;;;;;;;;5032444;28;20408;-58
2023/06/26 08:14:12;;;;;;;7.67;6.90;;;;;;;;;;5032502;28;20486;-58
2023/06/26 08:16:38;;;;;;;11.73;7.30;;;;;;;;;;5032818;28;20455;-58
2023/06/26 08:19:04;;;;;;;7.30;6.60;;;;;;;;;;5032692;28;20530;-58
2023/06/26 08:21:31;;;;;;;6.60;6.10;;;;;;;;;;5032490;28;20510;-58
2023/06/26 08:23:59;;;;;;;7.00;6.60;;;;;;;;;;5032012;28;20470;-58
2023/06/26 08:26:25;;;;;;;7.73;7.23;;;;;;;;;;5032489;28;20467;-58
2023/06/26 08:28:51;;;;;;;7.60;6.83;;;;;;;;;;5032610;28;20464;-57
2023/06/26 08:31:17;;;;;;;13.10;7.50;;;;;;;;;;5032607;28;20427;-57
2023/06/26 08:33:43;;;;;;;7.20;6.90;;;;;;;;;;5032488;28;20418;-57
2023/06/26 08:36:36;;;;;;;7.80;7.20;;;;;;;;;;5032597;28;20411;-57
2023/06/26 08:39:08;;;;;;;12.37;6.83;;;;;;;;;;5031837;28;20455;-57
2023/06/26 08:42:03;;;;;;;8.90;6.93;;;;;;;;;;5032339;28;20861;-58
2023/06/26 08:44:31;;;;;;;14.77;7.43;;;;;;;;;;5021667;28;20819;-57
2023/06/26 08:47:11;;;;;;;9.27;7.10;;;;;;;;;;5032322;28;20463;-58
2023/06/26 08:49:43;;;;;;;12.50;7.90;;;;;;;;;;5032401;28;20550;-57
2023/06/26 08:52:32;;;;;;;9.03;7.27;;;;;;;;;;5032476;28;20412;-58
2023/06/26 08:55:02;;;;;;;8.53;7.73;;;;;;;;;;5032272;28;20469;-58
2023/06/26 08:57:31;;;;;;;7.73;7.30;;;;;;;;;;5032114;28;20427;-58
2023/06/26 08:59:57;;;;;;;28.70;17.10;;;;;;;;;;5014893;28;20519;-57
2023/06/26 09:02:23;;;;;;;10.07;7.77;;;;;;;;;;5032354;28;20790;-58
2023/06/26 09:04:50;;;;;;;9.30;7.50;;;;;;;;;;5032237;28;20959;-58
2023/06/26 09:07:17;;;;;;;8.57;7.93;;;;;;;;;;5031992;28;20464;-58
2023/06/26 09:09:43;;;;;;;7.50;7.00;;;;;;;;;;5032066;28;20456;-58
2023/06/26 09:12:10;;;;;;;9.07;7.90;;;;;;;;;;5032442;28;20420;-57
2023/06/26 09:14:37;;;;;;;7.83;7.20;;;;;;;;;;5030951;28;20452;-57
2023/06/26 09:17:03;;;;;;;7.70;7.20;;;;;;;;;;5032316;28;20410;-57
2023/06/26 09:19:29;;;;;;;8.70;7.77;;;;;;;;;;5031913;28;20489;-58
2023/06/26 09:21:55;;;;;;;7.97;7.37;;;;;;;;;;5032027;28;20839;-58
2023/06/26 09:24:22;;;;;;;6.70;6.40;;;;;;;;;;5031960;28;20522;-58
2023/06/26 09:26:50;;;;;;;7.80;7.27;;;;;;;;;;5032046;28;20572;-58
2023/06/26 09:29:17;;;;;;;7.70;7.30;;;;;;;;;;5031906;28;20510;-57
2023/06/26 09:31:44;;;;;;;7.77;7.07;;;;;;;;;;5031988;28;20526;-57
2023/06/26 09:34:11;;;;;;;8.47;7.23;;;;;;;;;;5033308;28;20451;-58
2023/06/26 09:36:37;;;;;;;17.30;8.00;;;;;;;;;;5035772;28;20399;-58
2023/06/26 09:39:10;;;;;;;8.53;7.63;;;;;;;;;;5035726;28;20497;-57
2023/06/26 09:41:37;;;;;;;8.73;7.70;;;;;;;;;;5035544;28;20494;-58
2023/06/26 09:44:04;;;;;;;8.73;7.90;;;;;;;;;;5035580;28;20455;-62
2023/06/26 09:46:30;;;;;;;10.80;7.37;;;;;;;;;;5035107;28;20459;-62
2023/06/26 09:49:01;;;;;;;14.93;7.10;;;;;;;;;;5035375;28;20911;-62
2023/06/26 09:51:30;;;;;;;11.40;7.53;;;;;;;;;;5035074;28;20771;-62
2023/06/26 09:53:58;;;;;;;8.33;7.53;;;;;;;;;;5035374;28;20408;-62
2023/06/26 09:56:24;;;;;;;16.97;7.17;;;;;;;;;;5035380;28;20789;-61
2023/06/26 09:58:50;;;;;;;13.53;8.13;;;;;;;;;;5035027;28;20527;-62
2023/06/26 10:01:18;;;;;;;8.53;7.80;;;;;;;;;;5035262;28;20807;-62
2023/06/26 10:03:44;;;;;;;8.57;7.73;;;;;;;;;;5035152;28;20464;-62
2023/06/26 10:06:12;;;;;;;8.57;7.70;;;;;;;;;;5035148;28;20527;-62
2023/06/26 10:08:41;;;;;;;10.23;7.33;;;;;;;;;;5035128;28;20517;-62
2023/06/26 10:11:09;;;;;;;14.63;7.87;;;;;;;;;;5034794;28;20424;-62
2023/06/26 10:13:38;;;;;;;8.37;7.50;;;;;;;;;;5033323;28;20782;-62
2023/06/26 10:16:05;;;;;;;9.03;7.53;;;;;;;;;;5034734;28;20408;-62
2023/06/26 10:18:34;;;;;;;8.60;7.67;;;;;;;;;;5034691;28;20411;-62
2023/06/26 10:21:01;;;;;;;8.33;7.57;;;;;;;;;;5034866;28;20439;-62
2023/06/26 10:23:28;;;;;;;8.43;6.70;;;;;;;;;;5035025;28;20428;-62
2023/06/26 10:25:58;;;;;;;18.20;7.63;;;;;;;;;;5034333;28;20475;-62
2023/06/26 10:28:26;;;;;;;7.67;7.17;;;;;;;;;;5034772;28;20408;-62
2023/06/26 10:30:52;;;;;;;9.93;6.90;;;;;;;;;;5034641;28;20432;-62
2023/06/26 10:33:21;;;;;;;8.17;6.57;;;;;;;;;;5034686;28;20416;-62
2023/06/26 10:35:47;;;;;;;7.07;6.60;;;;;;;;;;5034466;28;20408;-62
2023/06/26 10:38:13;;;;;;;7.33;6.83;;;;;;;;;;5033299;28;20455;-62
2023/06/26 10:40:44;;;;;;;6.73;6.23;;;;;;;;;;5034473;28;20922;-62
2023/06/26 10:43:11;;;;;;;8.03;7.00;;;;;;;;;;5034578;28;20895;-62
2023/06/26 10:45:45;;;;;;;7.63;6.80;;;;;;;;;;5031970;28;20475;-62
2023/06/26 10:48:15;;;;;;;13.13;6.10;;;;;;;;;;5034460;28;20408;-62
2023/06/26 10:50:44;;;;;;;6.87;6.57;;;;;;;;;;5034330;28;20466;-62
2023/06/26 10:53:13;;;;;;;6.80;6.50;;;;;;;;;;5034251;28;20451;-62
2023/06/26 10:55:51;;;;;;;6.50;6.10;;;;;;;;;;5034129;28;20474;-62
2023/06/26 10:58:38;;;;;;;7.60;7.00;;;;;;;;;;5034252;28;20424;-62
2023/06/26 11:01:09;;;;;;;6.70;6.40;;;;;;;;;;5034091;28;20462;-62
2023/06/26 11:03:41;;;;;;;7.53;7.03;;;;;;;;;;5034569;28;20427;-62
2023/06/26 11:06:13;;;;;;;7.03;6.33;;;;;;;;;;5034021;28;20471;-62
2023/06/26 11:08:46;;;;;;;7.03;6.63;;;;;;;;;;5034014;28;20519;-62
2023/06/26 11:11:12;;;;;;;8.13;7.40;;;;;;;;;;5033956;28;20531;-62
2023/06/26 11:13:41;;;;;;;8.03;7.33;;;;;;;;;;5032769;28;20507;-62
2023/06/26 11:16:07;;;;;;;7.60;7.10;;;;;;;;;;5034142;28;20443;-62
2023/06/26 11:18:33;;;;;;;10.83;7.83;;;;;;;;;;5032628;28;20416;-62
2023/06/26 11:21:09;;;;;;;8.87;7.13;;;;;;;;;;5033604;28;20443;-62
2023/06/26 11:23:38;;;;;;;7.07;6.70;;;;;;;;;;5033868;28;20396;-62
2023/06/26 11:26:16;;;;;;;10.57;7.23;;;;;;;;;;5033551;28;20834;-62
2023/06/26 11:28:55;;;;;;;8.00;7.43;;;;;;;;;;5032273;28;20434;-61
2023/06/26 11:31:26;;;;;;;8.13;7.57;;;;;;;;;;5033789;28;20408;-61
2023/06/26 11:33:56;;;;;;;8.97;7.60;;;;;;;;;;5033371;28;20418;-62
2023/06/26 11:36:24;;;;;;;8.13;7.33;;;;;;;;;;5031881;28;20474;-61
2023/06/26 11:38:57;;;;;;;7.90;7.20;;;;;;;;;;5031822;28;20416;-61
2023/06/26 11:41:24;;;;;;;7.97;7.47;;;;;;;;;;5033251;28;20863;-61
2023/06/26 11:43:51;;;;;;;7.60;7.20;;;;;;;;;;5033420;28;20431;-61
2023/06/26 11:46:23;;;;;;;6.93;6.30;;;;;;;;;;5033242;28;20555;-62
2023/06/26 11:48:49;;;;;;;6.77;6.30;;;;;;;;;;5033330;28;20400;-62
2023/06/26 11:51:16;;;;;;;6.50;6.10;;;;;;;;;;5033259;28;20443;-62
2023/06/26 11:53:42;;;;;;;6.87;6.47;;;;;;;;;;5033145;28;20417;-62
2023/06/26 11:56:12;;;;;;;7.60;6.03;;;;;;;;;;5033025;28;20435;-62
2023/06/26 11:59:00;;;;;;;6.00;5.60;;;;;;;;;;5033176;28;20455;-62
2023/06/26 12:01:29;;;;;;;5.90;5.60;;;;;;;;;;5032503;28;20476;-62
2023/06/26 12:03:59;;;;;;;5.60;5.37;;;;;;;;;;5032942;28;20428;-62
2023/06/26 12:06:28;;;;;;;6.20;5.70;;;;;;;;;;5033079;28;20460;-62
2023/06/26 12:08:55;;;;;;;8.60;6.07;;;;;;;;;;5032420;28;20443;-62
2023/06/26 12:11:24;;;;;;;5.13;4.93;;;;;;;;;;5032791;28;20766;-62
2023/06/26 12:13:50;;;;;;;5.90;5.37;;;;;;;;;;5032573;28;20905;-62
2023/06/26 12:16:16;;;;;;;14.03;6.20;;;;;;;;;;5032181;28;20915;-62
2023/06/26 12:18:42;;;;;;;5.90;5.23;;;;;;;;;;5032792;28;20414;-62
2023/06/26 12:21:08;;;;;;;6.03;5.53;;;;;;;;;;5032550;28;20435;-62
2023/06/26 12:23:36;;;;;;;5.87;5.37;;;;;;;;;;5032711;28;20494;-61
2023/06/26 12:26:21;;;;;;;6.70;5.87;;;;;;;;;;5032432;28;20478;-61
2023/06/26 12:28:47;;;;;;;5.83;5.53;;;;;;;;;;5032231;28;20785;-62
2023/06/26 12:31:17;;;;;;;8.00;5.80;;;;;;;;;;5032258;28;20408;-62
2023/06/26 12:33:44;;;;;;;5.30;5.10;;;;;;;;;;5032452;28;20922;-62
2023/06/26 12:36:18;;;;;;;5.10;4.80;;;;;;;;;;5032510;28;20930;-62
2023/06/26 12:38:48;;;;;;;4.70;4.60;;;;;;;;;;5032592;28;20407;-62
2023/06/26 12:41:14;;;;;;;4.73;4.50;;;;;;;;;;5032296;28;20477;-62
2023/06/26 12:43:43;;;;;;;5.80;5.40;;;;;;;;;;5032270;28;20910;-62
2023/06/26 12:46:09;;;;;;;4.27;4.17;;;;;;;;;;5032023;28;20471;-62
2023/06/26 12:48:48;;;;;;;5.00;4.70;;;;;;;;;;5032590;28;20847;-62
2023/06/26 12:51:15;;;;;;;4.30;4.10;;;;;;;;;;5032305;28;20427;-62
2023/06/26 12:53:41;;;;;;;4.10;4.00;;;;;;;;;;5032523;28;20419;-62
2023/06/26 12:56:08;;;;;;;4.60;4.33;;;;;;;;;;5032274;28;20439;-62
2023/06/26 12:58:40;;;;;;;4.83;4.57;;;;;;;;;;5031450;28;20791;-62
2023/06/26 13:01:14;;;;;;;4.17;4.07;;;;;;;;;;5032791;28;20420;-62
2023/06/26 13:03:40;;;;;;;4.00;3.90;;;;;;;;;;5031618;28;20396;-62
2023/06/26 13:06:06;;;;;;;4.30;3.90;;;;;;;;;;5032152;28;20468;-62
2023/06/26 13:08:37;;;;;;;5.40;5.10;;;;;;;;;;5033289;28;20950;-62
2023/06/26 13:11:03;;;;;;;6.00;5.50;;;;;;;;;;5035894;28;20420;-62
2023/06/26 13:13:31;;;;;;;5.10;4.70;;;;;;;;;;5036879;28;20412;-62
2023/06/26 13:16:00;;;;;;;5.67;5.27;;;;;;;;;;5037199;28;20855;-62
2023/06/26 13:18:28;;;;;;;4.23;4.03;;;;;;;;;;5037173;28;20506;-62
2023/06/26 13:20:54;;;;;;;4.83;4.63;;;;;;;;;;5035925;28;20419;-62
2023/06/26 13:23:23;;;;;;;6.47;5.90;;;;;;;;;;5035735;28;20482;-62
2023/06/26 13:25:50;;;;;;;5.23;5.03;;;;;;;;;;5035861;28;20474;-62
2023/06/26 13:28:16;;;;;;;5.50;5.20;;;;;;;;;;5035913;28;20805;-62
2023/06/26 13:30:42;;;;;;;5.00;4.70;;;;;;;;;;5034290;28;20427;-62
2023/06/26 13:33:11;;;;;;;5.20;4.87;;;;;;;;;;5035730;28;20972;-62
2023/06/26 13:35:37;;;;;;;5.00;4.60;;;;;;;;;;5035882;28;20415;-62
2023/06/26 13:38:02;;;;;;;5.60;5.20;;;;;;;;;;5035561;28;20435;-62
2023/06/26 13:40:28;;;;;;;5.93;4.20;;;;;;;;;;5035496;28;20432;-62
2023/06/26 13:42:54;;;;;;;5.23;4.27;;;;;;;;;;5035622;28;20208;-62
2023/06/26 13:45:20;;;;;;;5.17;4.90;;;;;;;;;;5035271;28;20419;-62
2023/06/26 13:47:49;;;;;;;5.10;4.80;;;;;;;;;;5035539;28;20208;-62
2023/06/26 13:50:15;;;;;;;4.40;4.20;;;;;;;;;;5035412;28;20415;-62
2023/06/26 13:52:41;;;;;;;4.50;4.30;;;;;;;;;;5035256;28;20439;-62
2023/06/26 13:55:07;;;;;;;4.63;4.33;;;;;;;;;;5035216;28;20504;-62
2023/06/26 13:57:33;;;;;;;7.57;5.10;;;;;;;;;;5035123;28;20903;-62
2023/06/26 13:59:59;;;;;;;4.90;4.53;;;;;;;;;;5034183;28;20446;-62
2023/06/26 14:02:26;;;;;;;5.30;5.00;;;;;;;;;;5034737;28;20415;-62
2023/06/26 14:04:52;;;;;;;4.10;3.90;;;;;;;;;;5035317;28;20486;-62
2023/06/26 14:07:18;;;;;;;3.20;3.00;;;;;;;;;;5035167;28;20471;-62
2023/06/26 14:09:44;;;;;;;3.70;3.40;;;;;;;;;;5035039;28;20463;-62
2023/06/26 14:12:10;;;;;;;3.00;2.90;;;;;;;;;;5035205;28;20458;-62
2023/06/26 14:14:36;;;;;;;3.43;3.23;;;;;;;;;;5034986;28;20960;-62
2023/06/26 14:17:02;;;;;;;2.80;2.70;;;;;;;;;;5035119;28;20408;-62
2023/06/26 14:19:28;;;;;;;2.77;2.77;;;;;;;;;;5034570;28;20947;-62
2023/06/26 14:21:54;;;;;;;3.20;3.07;;;;;;;;;;5033839;28;20498;-62
2023/06/26 14:24:20;;;;;;;5.33;3.50;;;;;;;;;;5034874;28;20504;-62
2023/06/26 14:26:46;;;;;;;3.30;3.20;;;;;;;;;;5034566;28;20471;-61
2023/06/26 14:29:12;;;;;;;3.90;3.70;;;;;;;;;;5034803;28;20848;-61
2023/06/26 14:31:38;;;;;;;3.40;3.30;;;;;;;;;;5034836;28;20715;-61
2023/06/26 14:34:04;;;;;;;3.67;3.53;;;;;;;;;;5033215;28;20427;-61
2023/06/26 14:36:37;;;;;;;3.50;3.40;;;;;;;;;;5033270;28;20416;-61
2023/06/26 14:39:05;;;;;;;3.70;3.40;;;;;;;;;;5034690;28;20412;-62
2023/06/26 14:41:33;;;;;;;4.40;3.50;;;;;;;;;;5033396;28;20931;-62
2023/06/26 14:44:00;;;;;;;4.20;3.70;;;;;;;;;;5034458;28;20768;-62